createdAt,value
2018-05-13T00:01:12.567Z,16.50
2018-05-13T00:03:40.134Z,16.60
2018-05-13T00:06:08.663Z,16.70
2018-05-13T00:08:36.191Z,16.70
2018-05-13T00:11:03.706Z,16.60
2018-05-13T00:13:31.234Z,16.70
2018-05-13T00:15:58.733Z,16.70
2018-05-13T00:18:27.002Z,16.60
2018-05-13T00:20:54.535Z,16.60
2018-05-13T00:23:22.481Z,16.50
2018-05-13T00:25:50.002Z,16.40
2018-05-13T00:28:17.539Z,16.40
2018-05-13T00:30:45.836Z,16.20
2018-05-13T00:33:13.339Z,16.10
2018-05-13T00:35:40.861Z,16.20
2018-05-13T00:38:08.411Z,16.30
2018-05-13T00:40:36.309Z,16.20
2018-05-13T00:43:03.814Z,16.10
2018-05-13T00:45:32.105Z,16.40
2018-05-13T00:47:59.999Z,16.40
2018-05-13T00:50:27.527Z,16.70
2018-05-13T00:52:55.317Z,16.90
2018-05-13T00:55:22.842Z,16.80
2018-05-13T00:57:50.346Z,16.90
2018-05-13T01:00:17.871Z,16.80
2018-05-13T01:02:45.421Z,16.80
2018-05-13T01:05:13.686Z,16.50
2018-05-13T01:07:41.238Z,16.50
2018-05-13T01:10:08.762Z,16.40
2018-05-13T01:12:36.262Z,16.60
2018-05-13T01:15:03.789Z,16.60
2018-05-13T01:17:32.057Z,16.10
2018-05-13T01:20:00.354Z,16.10
2018-05-13T01:22:27.869Z,16.10
2018-05-13T01:24:55.394Z,16.10
2018-05-13T01:27:22.894Z,16.30
2018-05-13T01:29:50.433Z,16.30
2018-05-13T01:32:17.946Z,16.00
2018-05-13T01:34:45.483Z,15.70
2018-05-13T01:37:14.001Z,15.70
2018-05-13T01:39:41.864Z,15.70
2018-05-13T01:42:09.383Z,15.70
2018-05-13T01:44:36.919Z,15.80
2018-05-13T01:47:04.430Z,15.90
2018-05-13T01:49:32.294Z,16.10
2018-05-13T01:51:59.824Z,16.10
2018-05-13T01:54:27.372Z,16.20
2018-05-13T01:56:55.654Z,16.30
2018-05-13T01:59:23.207Z,16.30
2018-05-13T02:01:50.714Z,16.30
2018-05-13T02:04:18.279Z,16.40
2018-05-13T02:06:45.790Z,16.30
2018-05-13T02:09:13.318Z,16.30
2018-05-13T02:11:41.587Z,16.40
2018-05-13T02:14:09.134Z,16.40
2018-05-13T02:16:36.651Z,16.20
2018-05-13T02:19:04.186Z,16.00
2018-05-13T02:21:31.703Z,16.00
2018-05-13T02:23:59.242Z,16.00
2018-05-13T02:26:26.751Z,15.80
2018-05-13T02:28:54.263Z,15.70
2018-05-13T02:31:21.798Z,15.80
2018-05-13T02:33:49.548Z,15.90
2018-05-13T02:36:17.083Z,15.90
2018-05-13T02:38:44.602Z,16.00
2018-05-13T02:41:12.140Z,15.90
2018-05-13T02:43:39.665Z,15.80
2018-05-13T02:46:07.435Z,15.90
2018-05-13T02:48:34.999Z,15.80
2018-05-13T02:51:02.536Z,16.10
2018-05-13T02:53:30.051Z,16.10
2018-05-13T02:55:57.593Z,16.00
2018-05-13T02:58:25.114Z,15.80
2018-05-13T03:00:52.896Z,15.80
2018-05-13T03:03:20.430Z,15.70
2018-05-13T03:05:47.972Z,15.80
2018-05-13T03:08:15.491Z,15.70
2018-05-13T03:10:43.822Z,15.70
2018-05-13T03:13:11.359Z,15.70
2018-05-13T03:15:39.342Z,15.50
2018-05-13T03:18:06.859Z,15.60
2018-05-13T03:20:35.177Z,15.80
2018-05-13T03:23:02.711Z,15.80
2018-05-13T03:25:30.495Z,15.80
2018-05-13T03:27:58.003Z,15.90
2018-05-13T03:30:26.306Z,15.70
2018-05-13T03:32:53.815Z,15.70
2018-05-13T03:35:21.358Z,15.50
2018-05-13T03:37:48.887Z,15.40
2018-05-13T03:40:16.422Z,15.50
2018-05-13T03:42:43.943Z,15.40
2018-05-13T03:45:12.262Z,15.40
2018-05-13T03:47:39.774Z,15.40
2018-05-13T03:50:07.310Z,15.60
2018-05-13T03:52:34.832Z,15.70
2018-05-13T03:55:02.388Z,15.70
2018-05-13T03:57:30.167Z,15.80
2018-05-13T03:59:57.711Z,15.80
2018-05-13T04:02:25.227Z,16.00
2018-05-13T04:04:53.544Z,16.20
2018-05-13T04:07:21.107Z,16.20
2018-05-13T04:10:01.522Z,16.10
2018-05-13T04:15:28.300Z,15.70
2018-05-13T04:17:56.099Z,15.70
2018-05-13T04:20:23.655Z,15.70
2018-05-13T04:22:51.930Z,15.80
2018-05-13T04:25:19.463Z,15.80
2018-05-13T04:27:46.976Z,15.60
2018-05-13T04:30:15.275Z,15.50
2018-05-13T04:32:42.792Z,15.40
2018-05-13T04:35:10.328Z,15.60
2018-05-13T04:37:37.834Z,16.00
2018-05-13T04:40:05.366Z,16.00
2018-05-13T04:42:34.007Z,15.90
2018-05-13T04:45:01.548Z,15.90
2018-05-13T04:47:29.067Z,15.70
2018-05-13T04:49:57.363Z,15.80
2018-05-13T04:52:24.923Z,15.80
2018-05-13T04:54:52.434Z,16.00
2018-05-13T04:57:20.765Z,16.10
2018-05-13T04:59:48.271Z,16.10
2018-05-13T05:02:15.807Z,16.20
2018-05-13T05:04:43.341Z,16.40
2018-05-13T05:07:10.872Z,16.30
2018-05-13T05:09:38.387Z,16.20
2018-05-13T05:12:05.919Z,16.30
2018-05-13T05:14:33.431Z,16.40
2018-05-13T05:17:01.731Z,16.60
2018-05-13T05:19:29.243Z,16.60
2018-05-13T05:21:56.782Z,16.70
2018-05-13T05:24:24.299Z,17.00
2018-05-13T05:26:52.079Z,17.10
2018-05-13T05:29:19.594Z,16.90
2018-05-13T05:31:47.895Z,17.00
2018-05-13T05:34:15.412Z,16.90
2018-05-13T05:36:43.722Z,17.00
2018-05-13T05:39:11.230Z,17.00
2018-05-13T05:41:38.766Z,17.20
2018-05-13T05:44:06.283Z,16.90
2018-05-13T05:46:33.823Z,17.00
2018-05-13T05:49:02.099Z,17.20
2018-05-13T05:51:29.639Z,17.20
2018-05-13T05:53:57.921Z,17.60
2018-05-13T05:56:26.230Z,17.80
2018-05-13T05:58:53.744Z,17.80
2018-05-13T06:01:21.317Z,18.00
2018-05-13T06:03:48.881Z,18.20
2018-05-13T06:06:16.423Z,18.50
2018-05-13T06:08:44.698Z,18.40
2018-05-13T06:11:13.322Z,18.70
2018-05-13T06:13:40.838Z,18.60
2018-05-13T06:16:09.139Z,19.10
2018-05-13T06:18:36.655Z,19.10
2018-05-13T06:21:04.991Z,18.90
2018-05-13T06:23:32.589Z,18.90
2018-05-13T06:26:00.403Z,18.90
2018-05-13T06:28:27.918Z,18.90
2018-05-13T06:30:55.480Z,19.10
2018-05-13T06:33:22.999Z,18.80
2018-05-13T06:35:50.534Z,18.60
2018-05-13T06:38:18.051Z,18.80
2018-05-13T06:40:45.849Z,19.00
2018-05-13T06:43:13.370Z,19.20
2018-05-13T06:45:40.907Z,19.30
2018-05-13T06:48:08.422Z,19.60
2018-05-13T06:50:35.979Z,19.60
2018-05-13T06:53:03.497Z,19.40
2018-05-13T06:55:31.059Z,19.20
2018-05-13T06:57:58.576Z,19.50
2018-05-13T07:00:26.115Z,19.50
2018-05-13T07:02:54.061Z,19.50
2018-05-13T07:05:21.486Z,19.30
2018-05-13T07:07:49.029Z,19.70
2018-05-13T07:10:17.341Z,20.20
2018-05-13T07:12:44.863Z,20.20
2018-05-13T07:15:13.153Z,20.40
2018-05-13T07:17:40.691Z,20.40
2018-05-13T07:20:09.012Z,20.20
2018-05-13T07:22:36.556Z,20.20
2018-05-13T07:25:04.078Z,20.10
2018-05-13T07:27:31.639Z,20.40
2018-05-13T07:29:59.914Z,21.20
2018-05-13T07:32:27.446Z,21.20
2018-05-13T07:34:55.731Z,21.60
2018-05-13T07:37:24.467Z,21.80
2018-05-13T07:39:51.996Z,21.80
2018-05-13T07:42:19.530Z,21.30
2018-05-13T07:44:47.065Z,21.40
2018-05-13T07:47:14.636Z,21.10
2018-05-13T07:49:42.922Z,20.70
2018-05-13T07:52:11.331Z,20.70
2018-05-13T07:54:38.846Z,20.70
2018-05-13T07:57:07.183Z,21.10
2018-05-13T07:59:34.934Z,21.10
2018-05-13T08:02:02.481Z,21.00
2018-05-13T08:04:29.999Z,21.30
2018-05-13T08:06:58.309Z,21.30
2018-05-13T08:09:25.826Z,21.30
2018-05-13T08:11:54.127Z,21.80
2018-05-13T08:14:21.640Z,21.70
2018-05-13T08:16:49.180Z,22.00
2018-05-13T08:19:16.696Z,22.50
2018-05-13T08:21:44.235Z,22.80
2018-05-13T08:24:12.524Z,22.80
2018-05-13T08:26:40.074Z,22.80
2018-05-13T08:29:07.605Z,22.80
2018-05-13T08:31:35.919Z,22.50
2018-05-13T08:34:03.439Z,22.50
2018-05-13T08:36:31.741Z,23.00
2018-05-13T08:38:59.271Z,23.00
2018-05-13T08:41:27.579Z,23.60
2018-05-13T08:43:55.088Z,23.60
2018-05-13T08:46:22.622Z,23.90
2018-05-13T08:48:50.135Z,23.90
2018-05-13T08:51:17.683Z,23.80
2018-05-13T08:53:45.964Z,24.10
2018-05-13T08:56:13.499Z,24.00
2018-05-13T08:58:41.090Z,23.90
2018-05-13T09:01:08.625Z,24.30
2018-05-13T09:03:36.157Z,24.50
2018-05-13T09:06:03.695Z,24.90
2018-05-13T09:08:31.240Z,24.90
2018-05-13T09:10:59.098Z,24.00
2018-05-13T09:13:26.636Z,24.00
2018-05-13T09:15:54.419Z,24.40
2018-05-13T09:18:21.959Z,24.40
2018-05-13T09:20:49.543Z,24.50
2018-05-13T09:23:17.100Z,25.10
2018-05-13T09:25:44.949Z,25.20
2018-05-13T09:28:12.492Z,24.90
2018-05-13T09:30:40.002Z,25.30
2018-05-13T09:33:07.563Z,25.50
2018-05-13T09:35:35.074Z,25.70
2018-05-13T09:38:02.623Z,25.90
2018-05-13T09:40:30.135Z,26.00
2018-05-13T09:42:58.449Z,26.40
2018-05-13T09:45:25.986Z,26.40
2018-05-13T09:47:53.524Z,26.00
2018-05-13T09:50:21.817Z,26.60
2018-05-13T09:52:49.354Z,26.60
2018-05-13T09:55:17.634Z,25.90
2018-05-13T09:57:45.961Z,25.30
2018-05-13T10:00:13.486Z,25.30
2018-05-13T10:02:41.022Z,25.70
2018-05-13T10:05:09.302Z,25.80
2018-05-13T10:07:37.609Z,25.60
2018-05-13T10:10:05.119Z,25.50
2018-05-13T10:12:33.428Z,24.90
2018-05-13T10:15:00.994Z,24.90
2018-05-13T10:17:28.580Z,24.90
2018-05-13T10:19:56.566Z,24.60
2018-05-13T10:22:24.876Z,24.80
2018-05-13T10:24:52.627Z,24.80
2018-05-13T10:27:20.193Z,24.90
2018-05-13T10:29:47.743Z,25.10
2018-05-13T10:32:15.539Z,25.40
2018-05-13T10:34:43.074Z,25.70
2018-05-13T10:37:10.615Z,25.70
2018-05-13T10:39:38.126Z,25.60
2018-05-13T10:42:05.662Z,24.90
2018-05-13T10:44:33.178Z,24.50
2018-05-13T10:47:01.487Z,24.50
2018-05-13T10:49:29.018Z,24.50
2018-05-13T10:51:56.647Z,24.40
2018-05-13T10:54:24.167Z,24.70
2018-05-13T10:56:51.715Z,25.40
2018-05-13T10:59:19.222Z,25.60
2018-05-13T11:01:47.694Z,25.30
2018-05-13T11:04:15.212Z,25.30
2018-05-13T11:06:43.075Z,25.30
2018-05-13T11:09:10.587Z,25.40
2018-05-13T11:11:38.887Z,25.90
2018-05-13T11:14:06.401Z,25.90
2018-05-13T11:16:33.952Z,25.70
2018-05-13T11:19:01.466Z,25.40
2018-05-13T11:21:28.998Z,25.80
2018-05-13T11:23:56.514Z,26.30
2018-05-13T11:26:24.028Z,26.40
2018-05-13T11:28:51.624Z,25.90
2018-05-13T11:31:19.142Z,25.70
2018-05-13T11:33:46.702Z,25.40
2018-05-13T11:36:14.475Z,25.40
2018-05-13T11:38:42.032Z,25.50
2018-05-13T11:41:09.556Z,25.60
2018-05-13T11:43:37.099Z,25.50
2018-05-13T11:46:05.382Z,25.30
2018-05-13T11:48:32.911Z,25.40
2018-05-13T11:51:00.421Z,25.70
2018-05-13T11:53:28.007Z,26.00
2018-05-13T11:55:55.528Z,26.10
2018-05-13T11:58:23.066Z,26.00
2018-05-13T12:00:50.962Z,26.00
2018-05-13T12:03:18.491Z,26.00
2018-05-13T12:05:46.007Z,26.00
2018-05-13T12:08:13.544Z,26.30
2018-05-13T12:10:41.059Z,26.70
2018-05-13T12:13:08.594Z,26.90
2018-05-13T12:15:36.871Z,27.00
2018-05-13T12:18:04.411Z,27.00
2018-05-13T12:20:32.338Z,27.00
2018-05-13T12:22:59.876Z,26.80
2018-05-13T12:25:27.382Z,26.50
2018-05-13T12:27:55.003Z,26.30
2018-05-13T12:30:22.511Z,26.40
2018-05-13T12:32:50.809Z,26.20
2018-05-13T12:35:18.310Z,26.20
2018-05-13T12:37:45.836Z,26.40
2018-05-13T12:40:13.338Z,26.70
2018-05-13T12:42:40.870Z,26.60
2018-05-13T12:45:08.408Z,26.20
2018-05-13T12:47:35.947Z,26.10
2018-05-13T12:50:03.477Z,26.50
2018-05-13T12:52:32.114Z,26.50
2018-05-13T12:54:59.626Z,26.50
2018-05-13T12:57:27.153Z,26.50
2018-05-13T12:59:54.698Z,26.20
2018-05-13T13:02:22.223Z,25.50
2018-05-13T13:04:49.758Z,25.00
2018-05-13T13:07:17.306Z,25.00
2018-05-13T13:09:45.603Z,25.00
2018-05-13T13:12:13.110Z,24.90
2018-05-13T13:14:40.635Z,25.20
2018-05-13T13:17:08.143Z,25.00
2018-05-13T13:19:36.442Z,25.10
2018-05-13T13:22:03.994Z,25.10
2018-05-13T13:24:32.278Z,25.80
2018-05-13T13:26:59.787Z,25.80
2018-05-13T13:29:28.111Z,25.90
2018-05-13T13:31:55.620Z,25.90
2018-05-13T13:34:23.667Z,26.30
2018-05-13T13:36:51.166Z,26.00
2018-05-13T13:39:19.476Z,25.80
2018-05-13T13:41:47.251Z,25.80
2018-05-13T13:44:14.804Z,25.80
2018-05-13T13:46:42.343Z,26.00
2018-05-13T13:49:09.872Z,26.20
2018-05-13T13:51:38.176Z,26.20
2018-05-13T13:54:05.714Z,26.20
2018-05-13T13:56:33.454Z,25.80
2018-05-13T13:59:01.732Z,25.10
2018-05-13T14:01:30.036Z,24.90
2018-05-13T14:03:57.548Z,24.90
2018-05-13T14:06:25.387Z,24.30
2018-05-13T14:08:52.870Z,24.70
2018-05-13T14:11:20.646Z,24.60
2018-05-13T14:13:49.277Z,23.40
2018-05-13T14:16:16.818Z,23.30
2018-05-13T14:18:44.323Z,23.30
2018-05-13T14:21:11.850Z,23.20
2018-05-13T14:23:39.823Z,23.20
2018-05-13T14:26:08.118Z,23.10
2018-05-13T14:28:35.634Z,23.00
2018-05-13T14:31:03.164Z,23.00
2018-05-13T14:33:30.671Z,23.00
2018-05-13T14:35:58.215Z,22.80
2018-05-13T14:38:25.723Z,22.90
2018-05-13T14:40:54.116Z,22.30
2018-05-13T14:43:21.795Z,22.30
2018-05-13T14:45:49.331Z,22.20
2018-05-13T14:48:16.838Z,22.30
2018-05-13T14:50:44.367Z,22.00
2018-05-13T14:53:11.875Z,22.00
2018-05-13T14:55:39.430Z,21.60
2018-05-13T14:58:07.738Z,21.70
2018-05-13T15:00:35.230Z,21.70
2018-05-13T15:03:02.771Z,21.70
2018-05-13T15:05:30.282Z,21.50
2018-05-13T15:07:57.835Z,21.70
2018-05-13T15:10:25.438Z,21.70
2018-05-13T15:12:53.675Z,21.50
2018-05-13T15:15:21.191Z,21.40
2018-05-13T15:17:48.723Z,21.60
2018-05-13T15:20:16.230Z,21.60
2018-05-13T15:22:44.529Z,21.60
2018-05-13T15:25:12.039Z,21.60
2018-05-13T15:27:39.572Z,21.40
2018-05-13T15:30:07.078Z,21.30
2018-05-13T15:32:35.383Z,20.80
2018-05-13T15:35:03.154Z,20.80
2018-05-13T15:37:30.687Z,20.60
2018-05-13T15:39:58.477Z,20.30
2018-05-13T15:42:26.012Z,20.10
2018-05-13T15:44:53.796Z,19.90
2018-05-13T15:47:21.338Z,19.80
2018-05-13T15:49:48.870Z,19.80
2018-05-13T15:52:16.666Z,19.70
2018-05-13T15:54:44.199Z,19.70
2018-05-13T15:57:11.986Z,19.70
2018-05-13T15:59:39.516Z,19.70
2018-05-13T16:02:07.798Z,19.70
2018-05-13T16:04:35.338Z,19.70
2018-05-13T16:07:02.851Z,19.80
2018-05-13T16:09:30.388Z,19.90
2018-05-13T16:11:57.904Z,20.00
2018-05-13T16:14:25.706Z,20.20
2018-05-13T16:16:53.219Z,19.90
2018-05-13T16:19:21.522Z,20.10
2018-05-13T16:21:49.327Z,20.10
2018-05-13T16:24:16.858Z,20.40
2018-05-13T16:26:44.612Z,20.40
2018-05-13T16:29:12.142Z,20.50
2018-05-13T16:31:39.651Z,20.70
2018-05-13T16:34:07.178Z,20.70
2018-05-13T16:36:34.687Z,20.60
2018-05-13T16:39:03.007Z,20.40
2018-05-13T16:41:30.771Z,20.40
2018-05-13T16:43:58.302Z,20.00
2018-05-13T16:46:25.864Z,19.70
2018-05-13T16:48:54.145Z,19.70
2018-05-13T16:51:21.874Z,19.80
2018-05-13T16:53:50.171Z,19.70
2018-05-13T16:56:17.682Z,19.70
2018-05-13T16:58:45.211Z,19.70
2018-05-13T17:01:12.719Z,19.60
2018-05-13T17:03:41.342Z,19.40
2018-05-13T17:06:08.847Z,19.40
2018-05-13T17:08:37.175Z,19.20
2018-05-13T17:11:04.682Z,19.20
2018-05-13T17:13:32.984Z,19.30
2018-05-13T17:16:00.500Z,19.30
2018-05-13T17:18:28.030Z,19.10
2018-05-13T17:20:55.562Z,19.00
2018-05-13T17:23:23.091Z,18.80
2018-05-13T17:25:51.364Z,19.10
2018-05-13T17:28:19.667Z,19.00
2018-05-13T17:30:47.186Z,19.00
2018-05-13T17:33:15.491Z,18.70
2018-05-13T17:35:43.267Z,18.70
2018-05-13T17:38:10.813Z,18.80
2018-05-13T17:40:38.335Z,18.60
2018-05-13T17:43:06.650Z,18.60
2018-05-13T17:45:34.418Z,18.50
2018-05-13T17:48:01.946Z,18.50
2018-05-13T17:50:29.480Z,18.30
2018-05-13T17:52:57.758Z,18.20
2018-05-13T17:55:26.071Z,18.10
2018-05-13T17:57:53.593Z,18.10
2018-05-13T18:00:21.154Z,17.90
2018-05-13T18:02:48.672Z,17.50
2018-05-13T18:05:16.251Z,17.60
2018-05-13T18:07:44.530Z,17.60
2018-05-13T18:10:12.830Z,17.60
2018-05-13T18:12:40.347Z,17.60
2018-05-13T18:15:07.877Z,17.40
2018-05-13T18:17:35.386Z,17.50
2018-05-13T18:20:02.920Z,17.60
2018-05-13T18:22:31.564Z,17.80
2018-05-13T18:24:59.104Z,17.80
2018-05-13T18:27:26.618Z,17.90
2018-05-13T18:29:54.163Z,17.80
2018-05-13T18:32:21.687Z,17.70
2018-05-13T18:34:49.232Z,17.60
2018-05-13T18:37:16.758Z,17.70
2018-05-13T18:39:44.361Z,17.50
2018-05-13T18:42:11.898Z,17.50
2018-05-13T18:44:39.460Z,17.50
2018-05-13T18:47:06.970Z,17.60
2018-05-13T18:49:35.279Z,17.60
2018-05-13T18:52:02.782Z,17.60
2018-05-13T18:54:30.323Z,17.60
2018-05-13T18:56:57.839Z,17.80
2018-05-13T18:59:25.367Z,17.80
2018-05-13T19:01:53.671Z,17.70
2018-05-13T19:04:21.207Z,17.70
2018-05-13T19:06:49.474Z,17.70
2018-05-13T19:09:17.766Z,17.70
2018-05-13T19:11:45.269Z,17.70
2018-05-13T19:14:12.807Z,17.50
2018-05-13T19:16:40.314Z,17.50
2018-05-13T19:19:08.619Z,17.70
2018-05-13T19:21:36.153Z,17.70
2018-05-13T19:24:04.455Z,17.50
2018-05-13T19:26:31.985Z,17.60
2018-05-13T19:28:59.546Z,17.40
2018-05-13T19:31:27.352Z,17.30
2018-05-13T19:33:54.874Z,17.10
2018-05-13T19:36:22.395Z,17.20
2018-05-13T19:38:50.722Z,16.80
2018-05-13T19:41:18.234Z,16.70
2018-05-13T19:43:46.055Z,16.40
2018-05-13T19:46:13.817Z,16.60
2018-05-13T19:48:41.432Z,16.60
2018-05-13T19:51:08.882Z,16.60
2018-05-13T19:53:37.167Z,16.80
2018-05-13T19:56:04.749Z,16.80
2018-05-13T19:58:32.262Z,16.70
2018-05-13T20:01:00.565Z,16.60
2018-05-13T20:03:28.437Z,16.60
2018-05-13T20:05:55.898Z,16.40
2018-05-13T20:08:23.438Z,16.20
2018-05-13T20:10:51.227Z,16.30
2018-05-13T20:13:18.743Z,16.60
2018-05-13T20:15:46.301Z,16.50
2018-05-13T20:18:14.575Z,16.40
2018-05-13T20:20:42.882Z,16.40
2018-05-13T20:23:22.259Z,16.40
2018-05-13T20:25:49.790Z,16.50
2018-05-13T20:28:17.299Z,16.40
2018-05-13T20:30:44.831Z,16.40
2018-05-13T20:33:12.347Z,16.30
2018-05-13T20:35:39.879Z,16.30
2018-05-13T20:38:07.411Z,16.30
2018-05-13T20:40:35.714Z,16.20
2018-05-13T20:43:03.278Z,16.20
2018-05-13T20:45:30.813Z,16.10
2018-05-13T20:47:58.325Z,16.00
2018-05-13T20:50:25.867Z,16.10
2018-05-13T20:52:53.392Z,16.10
2018-05-13T20:55:20.935Z,15.90
2018-05-13T20:57:48.452Z,16.00
2018-05-13T21:00:16.777Z,16.00
2018-05-13T21:02:44.316Z,16.00
2018-05-13T21:05:13.023Z,15.90
2018-05-13T21:07:40.470Z,15.90
2018-05-13T21:10:08.009Z,15.90
2018-05-13T21:12:36.531Z,16.00
2018-05-13T21:15:04.072Z,16.00
2018-05-13T21:17:31.651Z,16.00
2018-05-13T21:19:59.180Z,15.80
2018-05-13T21:22:26.962Z,16.00
2018-05-13T21:24:54.490Z,16.10
2018-05-13T21:27:22.048Z,16.10
2018-05-13T21:29:49.588Z,16.00
2018-05-13T21:32:17.894Z,16.00
2018-05-13T21:34:45.422Z,16.00
2018-05-13T21:37:13.698Z,16.20
2018-05-13T21:39:42.324Z,16.10
2018-05-13T21:42:09.864Z,16.10
2018-05-13T21:44:37.638Z,16.10
2018-05-13T21:47:05.157Z,16.00
2018-05-13T21:49:32.695Z,15.90
2018-05-13T21:52:01.059Z,15.90
2018-05-13T21:54:28.609Z,15.80
2018-05-13T21:56:56.148Z,15.90
2018-05-13T21:59:23.670Z,15.90
2018-05-13T22:01:51.187Z,16.00
2018-05-13T22:04:18.730Z,15.90
2018-05-13T22:06:46.234Z,15.90
2018-05-13T22:09:13.767Z,15.90
2018-05-13T22:11:42.050Z,16.00
2018-05-13T22:14:09.860Z,15.90
2018-05-13T22:16:37.386Z,16.00
2018-05-13T22:19:04.903Z,15.90
2018-05-13T22:21:32.434Z,16.00
2018-05-13T22:23:59.941Z,15.90
2018-05-13T22:26:28.234Z,15.70
2018-05-13T22:28:55.769Z,15.70
2018-05-13T22:31:23.310Z,15.70
2018-05-13T22:33:51.126Z,15.80
2018-05-13T22:36:18.659Z,15.80
2018-05-13T22:38:46.447Z,15.90
2018-05-13T22:41:13.989Z,16.00
2018-05-13T22:43:41.494Z,15.90
2018-05-13T22:46:09.061Z,15.80
2018-05-13T22:48:37.382Z,15.70
2018-05-13T22:51:04.919Z,15.70
2018-05-13T22:53:32.439Z,15.60
2018-05-13T22:55:59.978Z,15.70
2018-05-13T22:58:27.539Z,15.70
2018-05-13T23:00:55.043Z,15.50
2018-05-13T23:03:22.562Z,15.50
2018-05-13T23:05:50.090Z,15.50
2018-05-13T23:08:17.599Z,15.40
2018-05-13T23:10:45.900Z,15.50
2018-05-13T23:13:13.410Z,15.50
2018-05-13T23:15:40.940Z,15.70
2018-05-13T23:18:08.457Z,15.60
2018-05-13T23:20:36.243Z,15.70
2018-05-13T23:23:04.013Z,15.80
2018-05-13T23:25:31.547Z,15.60
2018-05-13T23:27:59.092Z,15.50
2018-05-13T23:30:26.889Z,15.60
2018-05-13T23:32:54.418Z,15.60
2018-05-13T23:35:21.972Z,15.60
2018-05-13T23:37:49.490Z,15.60
2018-05-13T23:40:17.316Z,15.60
2018-05-13T23:42:45.080Z,15.70
2018-05-13T23:45:12.620Z,15.60
2018-05-13T23:47:40.142Z,15.60
2018-05-13T23:50:08.442Z,15.50
2018-05-13T23:52:35.955Z,15.50
2018-05-13T23:55:03.495Z,15.50
2018-05-13T23:57:31.002Z,15.50
2018-05-13T23:59:58.558Z,15.50
